Time;durP1;ratioP1;P1;durP2;ratioP2;P2;SDS_P1;SDS_P2;PMS_P1;PMS_P2;Temp;Humidity;BMP_temperature;BMP_pressure;BME280_temperature;BME280_humidity;BME280_pressure;Samples;Min_cycle;Max_cycle;Signal;HPM_P1;HPM_P2
2022/01/08 00:01:11;;;;;;;;;;;1.30;99.50;;;;;;5063095;28;19915;-63
2022/01/08 00:03:41;;;;;;;;;;;1.20;99.60;;;;;;5063033;28;20235;-64
2022/01/08 00:06:07;;;;;;;;;;;1.20;99.70;;;;;;5062650;28;19917;-64
2022/01/08 00:08:33;;;;;;;;;;;1.10;99.80;;;;;;5061940;28;19963;-64
2022/01/08 00:10:59;;;;;;;;;;;1.20;99.90;;;;;;5062878;28;19908;-64
2022/01/08 00:13:24;;;;;;;;;;;1.10;99.90;;;;;;5062620;28;20347;-64
2022/01/08 00:15:50;;;;;;;;;;;1.10;99.90;;;;;;5062578;28;19913;-64
2022/01/08 00:18:16;;;;;;;;;;;1.10;99.90;;;;;;5062996;28;20203;-64
2022/01/08 00:20:42;;;;;;;;;;;1.20;99.90;;;;;;5063012;28;19908;-64
2022/01/08 00:23:07;;;;;;;;;;;1.30;99.80;;;;;;5062938;28;20192;-64
2022/01/08 00:25:33;;;;;;;;;;;1.20;99.80;;;;;;5062425;28;19955;-63
2022/01/08 00:27:59;;;;;;;;;;;1.30;99.80;;;;;;5044819;28;20203;-67
2022/01/08 00:30:25;;;;;;;;;;;1.40;99.50;;;;;;5091247;23;19955;-66
2022/01/08 00:32:50;;;;;;;;;;;1.40;99.50;;;;;;5079433;28;19983;-66
2022/01/08 00:35:17;;;;;;;;;;;1.40;99.50;;;;;;5082499;28;19908;-66
2022/01/08 00:37:43;;;;;;;;;;;1.40;99.30;;;;;;5082789;28;19908;-66
2022/01/08 00:40:09;;;;;;;;;;;1.40;99.20;;;;;;5082717;28;19908;-66
2022/01/08 00:42:35;;;;;;;;;;;1.50;99.20;;;;;;5082756;28;19927;-67
2022/01/08 00:45:02;;;;;;;;;;;1.50;99.10;;;;;;5081069;28;19908;-66
2022/01/08 00:47:27;;;;;;;;;;;1.50;98.90;;;;;;5082708;28;20106;-66
2022/01/08 00:49:53;;;;;;;;;;;1.50;98.90;;;;;;5082480;28;19909;-66
2022/01/08 00:52:19;;;;;;;;;;;1.50;98.80;;;;;;5082645;28;20150;-66
2022/01/08 00:54:44;;;;;;;;;;;1.50;98.80;;;;;;5081264;28;19908;-66
2022/01/08 00:57:10;;;;;;;;;;;1.50;98.80;;;;;;5082471;28;19908;-66
2022/01/08 00:59:36;;;;;;;;;;;1.40;98.90;;;;;;5070321;28;20223;-65
2022/01/08 01:02:03;;;;;;;;;;;1.40;99.00;;;;;;5062474;28;19979;-66
2022/01/08 01:04:28;;;;;;;;;;;1.40;99.10;;;;;;5062066;28;19944;-65
2022/01/08 01:06:54;;;;;;;;;;;1.40;99.00;;;;;;5061819;28;19947;-65
2022/01/08 01:09:20;;;;;;;;;;;1.50;99.00;;;;;;5062427;28;19916;-65
2022/01/08 01:11:46;;;;;;;;;;;1.40;98.90;;;;;;5062292;28;19909;-66
2022/01/08 01:14:11;;;;;;;;;;;1.50;98.80;;;;;;5061270;28;19913;-65
2022/01/08 01:16:37;;;;;;;;;;;1.50;98.90;;;;;;5062270;28;20115;-66
2022/01/08 01:19:04;;;;;;;;;;;1.50;98.80;;;;;;5062250;28;19909;-65
2022/01/08 01:21:30;;;;;;;;;;;1.50;98.70;;;;;;5062281;28;19908;-66
2022/01/08 01:23:56;;;;;;;;;;;1.40;98.80;;;;;;5062287;28;19947;-66
2022/01/08 01:26:25;;;;;;;;;;;1.40;99.00;;;;;;5061943;28;19909;-66
2022/01/08 01:29:00;;;;;;;;;;;1.50;99.10;;;;;;5062057;28;20400;-66
2022/01/08 01:47:29;;;;;;;;;;;1.50;99.10;;;;;;5064578;28;20170;-66
2022/01/08 01:49:54;;;;;;;;;;;1.40;99.10;;;;;;5048321;28;19913;-67
2022/01/08 01:52:20;;;;;;;;;;;1.50;98.90;;;;;;5065419;28;19921;-66
2022/01/08 01:54:46;;;;;;;;;;;1.50;98.70;;;;;;5065138;28;19932;-66
2022/01/08 01:57:13;;;;;;;;;;;1.50;98.80;;;;;;5065460;28;19967;-67
2022/01/08 01:59:39;;;;;;;;;;;1.50;98.60;;;;;;5065048;28;20093;-67
2022/01/08 02:02:04;;;;;;;;;;;1.50;98.70;;;;;;5063761;28;19981;-66
2022/01/08 02:04:30;;;;;;;;;;;1.50;98.50;;;;;;5065235;28;19931;-66
2022/01/08 02:06:56;;;;;;;;;;;1.50;98.50;;;;;;5065374;28;19916;-66
2022/01/08 02:09:21;;;;;;;;;;;1.40;98.60;;;;;;5064286;28;19943;-65
2022/01/08 02:12:00;;;;;;;;;;;1.40;98.80;;;;;;5065119;28;19909;-66
2022/01/08 02:14:30;;;;;;;;;;;1.40;99.00;;;;;;5064281;28;19966;-66
2022/01/08 02:16:56;;;;;;;;;;;1.40;98.60;;;;;;5065148;28;20219;-64
2022/01/08 02:19:22;;;;;;;;;;;1.40;98.80;;;;;;5064894;28;19909;-66
2022/01/08 02:21:58;;;;;;;;;;;1.30;99.00;;;;;;5064975;28;19972;-66
2022/01/08 02:24:24;;;;;;;;;;;1.30;99.10;;;;;;5063355;28;20112;-66
2022/01/08 02:26:50;;;;;;;;;;;1.30;99.00;;;;;;5064844;28;19909;-66
2022/01/08 02:29:17;;;;;;;;;;;1.40;98.60;;;;;;5064659;28;19919;-66
2022/01/08 02:31:53;;;;;;;;;;;1.50;98.50;;;;;;5063495;28;19909;-66
2022/01/08 02:34:19;;;;;;;;;;;1.40;98.30;;;;;;5064393;28;19935;-66
2022/01/08 02:36:44;;;;;;;;;;;1.40;98.30;;;;;;5058192;28;19940;-66
2022/01/08 02:39:12;;;;;;;;;;;1.50;98.10;;;;;;5063939;28;19944;-66
2022/01/08 02:41:39;;;;;;;;;;;1.40;98.30;;;;;;5063391;28;19947;-65
2022/01/08 02:44:06;;;;;;;;;;;1.40;97.80;;;;;;5064365;28;19912;-65
2022/01/08 02:46:32;;;;;;;;;;;1.40;97.80;;;;;;5064212;28;20123;-66
2022/01/08 02:48:57;;;;;;;;;;;1.40;97.70;;;;;;5064312;28;19908;-65
2022/01/08 02:51:24;;;;;;;;;;;1.40;97.80;;;;;;5064266;28;19908;-66
2022/01/08 02:53:50;;;;;;;;;;;1.40;97.70;;;;;;5064144;28;19920;-65
2022/01/08 02:56:16;;;;;;;;;;;1.30;97.80;;;;;;5063994;28;19931;-66
2022/01/08 02:58:42;;;;;;;;;;;1.30;97.90;;;;;;5063983;28;19988;-65
2022/01/08 03:01:07;;;;;;;;;;;1.30;97.80;;;;;;5063259;28;19909;-66
2022/01/08 03:03:33;;;;;;;;;;;1.30;98.00;;;;;;5064125;28;19909;-67
2022/01/08 03:05:59;;;;;;;;;;;1.30;98.00;;;;;;5063776;28;19909;-66
2022/01/08 03:08:26;;;;;;;;;;;1.30;97.90;;;;;;5063692;28;20156;-67
2022/01/08 03:10:53;;;;;;;;;;;1.30;98.00;;;;;;5063364;28;19909;-67
2022/01/08 03:13:19;;;;;;;;;;;1.30;97.90;;;;;;5062768;28;19913;-66
2022/01/08 03:15:44;;;;;;;;;;;1.30;97.90;;;;;;5062458;28;19944;-66
2022/01/08 03:18:10;;;;;;;;;;;1.30;97.90;;;;;;5063813;28;19908;-67
2022/01/08 03:20:44;;;;;;;;;;;1.30;98.10;;;;;;5063766;28;19909;-66
2022/01/08 03:23:14;;;;;;;;;;;1.30;97.80;;;;;;5063449;28;19909;-67
2022/01/08 03:25:40;;;;;;;;;;;1.30;97.50;;;;;;5046406;28;19916;-67
2022/01/08 03:28:05;;;;;;;;;;;1.30;97.60;;;;;;5063523;28;19917;-67
2022/01/08 03:30:31;;;;;;;;;;;1.20;97.90;;;;;;5063508;28;19909;-66
2022/01/08 03:32:57;;;;;;;;;;;1.20;98.20;;;;;;5063544;28;20178;-65
2022/01/08 03:35:22;;;;;;;;;;;1.20;98.40;;;;;;5063165;28;19916;-67
2022/01/08 03:37:48;;;;;;;;;;;1.20;98.50;;;;;;5062897;28;20378;-67
2022/01/08 03:40:14;;;;;;;;;;;1.10;98.30;;;;;;5063298;28;19909;-66
2022/01/08 03:42:39;;;;;;;;;;;1.20;98.20;;;;;;5063194;28;20204;-66
2022/01/08 03:45:06;;;;;;;;;;;1.40;97.90;;;;;;5063123;28;20211;-66
2022/01/08 03:47:54;;;;;;;;;;;1.30;97.90;;;;;;5063323;28;19915;-66
2022/01/08 03:50:17;;;;;;;;;;;1.20;98.20;;;;;;5063088;28;19924;-67
2022/01/08 03:52:45;;;;;;;;;;;1.20;97.90;;;;;;5062693;28;19983;-67
2022/01/08 03:55:11;;;;;;;;;;;1.20;98.10;;;;;;5062969;28;19912;-66
2022/01/08 03:57:37;;;;;;;;;;;1.20;98.30;;;;;;5063179;28;19909;-66
2022/01/08 04:00:04;;;;;;;;;;;1.20;98.40;;;;;;5063107;28;20104;-66
2022/01/08 04:02:29;;;;;;;;;;;1.30;98.10;;;;;;5063086;28;20245;-67
2022/01/08 04:04:55;;;;;;;;;;;1.30;97.80;;;;;;5062796;28;19931;-66
2022/01/08 04:07:21;;;;;;;;;;;1.40;97.70;;;;;;5063009;28;19909;-66
2022/01/08 04:09:46;;;;;;;;;;;1.40;97.70;;;;;;5062616;28;19916;-66
2022/01/08 04:12:16;;;;;;;;;;;1.40;97.70;;;;;;5062469;28;20225;-66
2022/01/08 04:14:53;;;;;;;;;;;1.40;97.60;;;;;;5062633;28;19954;-66
2022/01/08 04:17:19;;;;;;;;;;;1.40;97.70;;;;;;5062953;28;20115;-66
2022/01/08 04:19:45;;;;;;;;;;;1.30;97.90;;;;;;5062843;28;19968;-66
2022/01/08 04:22:12;;;;;;;;;;;1.30;98.00;;;;;;5062881;28;20262;-66
2022/01/08 04:24:40;;;;;;;;;;;1.30;98.20;;;;;;5062413;28;19909;-66
2022/01/08 04:27:05;;;;;;;;;;;1.30;98.40;;;;;;5062921;28;19984;-66
2022/01/08 04:29:31;;;;;;;;;;;1.30;98.50;;;;;;5062531;28;19913;-66
2022/01/08 04:31:57;;;;;;;;;;;1.30;98.40;;;;;;5061621;28;19909;-66
2022/01/08 04:34:22;;;;;;;;;;;1.30;98.40;;;;;;5062486;28;19917;-65
2022/01/08 04:36:48;;;;;;;;;;;1.20;98.60;;;;;;5062737;28;19908;-66
2022/01/08 04:39:14;;;;;;;;;;;1.30;98.70;;;;;;5062177;28;19909;-66
2022/01/08 04:41:41;;;;;;;;;;;1.10;98.90;;;;;;5062565;28;19987;-66
2022/01/08 04:44:07;;;;;;;;;;;1.10;98.90;;;;;;5062674;28;19912;-66
2022/01/08 04:46:33;;;;;;;;;;;1.20;98.90;;;;;;5062719;28;19984;-66
2022/01/08 04:48:59;;;;;;;;;;;1.20;99.00;;;;;;5062555;28;20108;-65
2022/01/08 04:51:24;;;;;;;;;;;1.20;99.10;;;;;;5062557;28;19916;-66
2022/01/08 04:53:50;;;;;;;;;;;1.20;99.20;;;;;;5062410;28;20108;-65
2022/01/08 04:56:16;;;;;;;;;;;1.10;99.20;;;;;;5062378;28;19977;-66
2022/01/08 04:58:42;;;;;;;;;;;1.10;99.30;;;;;;5062471;28;19928;-66
2022/01/08 05:01:14;;;;;;;;;;;1.10;99.40;;;;;;5062622;28;20108;-65
2022/01/08 05:03:40;;;;;;;;;;;1.10;99.40;;;;;;5061495;28;19908;-66
2022/01/08 05:06:05;;;;;;;;;;;1.10;99.40;;;;;;5066177;28;19959;-64
2022/01/08 05:08:31;;;;;;;;;;;1.10;99.50;;;;;;5066257;28;20160;-67
2022/01/08 05:10:57;;;;;;;;;;;1.10;99.60;;;;;;5066179;28;19908;-66
2022/01/08 05:13:22;;;;;;;;;;;1.10;99.50;;;;;;5065288;28;19980;-66
2022/01/08 05:15:48;;;;;;;;;;;1.10;99.50;;;;;;5065908;28;19909;-66
2022/01/08 05:18:14;;;;;;;;;;;1.10;99.60;;;;;;5065993;28;20203;-67
2022/01/08 05:20:41;;;;;;;;;;;1.10;99.80;;;;;;5066046;28;19972;-66
2022/01/08 05:23:07;;;;;;;;;;;1.10;99.80;;;;;;5066066;28;19912;-65
2022/01/08 05:25:33;;;;;;;;;;;1.10;99.90;;;;;;5065669;28;19936;-66
2022/01/08 05:27:59;;;;;;;;;;;1.10;99.90;;;;;;5065672;28;19908;-65
2022/01/08 05:30:25;;;;;;;;;;;1.00;99.90;;;;;;5064553;28;19913;-66
2022/01/08 05:32:51;;;;;;;;;;;1.10;99.90;;;;;;5065912;28;19912;-65
2022/01/08 05:35:16;;;;;;;;;;;1.10;99.90;;;;;;5065541;28;19909;-65
2022/01/08 05:37:42;;;;;;;;;;;1.10;99.90;;;;;;5065557;28;20348;-67
2022/01/08 05:40:08;;;;;;;;;;;1.00;99.90;;;;;;5065804;28;19948;-65
2022/01/08 05:42:34;;;;;;;;;;;1.10;99.90;;;;;;5064654;28;19916;-66
2022/01/08 05:45:00;;;;;;;;;;;1.20;99.90;;;;;;5065180;28;19909;-66
2022/01/08 05:47:30;;;;;;;;;;;1.20;99.90;;;;;;5065609;28;19916;-66
2022/01/08 05:49:55;;;;;;;;;;;1.10;99.90;;;;;;5065375;28;19909;-65
2022/01/08 05:52:21;;;;;;;;;;;1.10;99.90;;;;;;5065525;28;19913;-65
2022/01/08 05:54:47;;;;;;;;;;;1.10;99.90;;;;;;5065192;28;20253;-66
2022/01/08 05:57:12;;;;;;;;;;;1.20;99.90;;;;;;5065468;28;19955;-66
2022/01/08 05:59:38;;;;;;;;;;;1.20;99.90;;;;;;5065052;28;19912;-66
2022/01/08 06:02:05;;;;;;;;;;;1.20;99.90;;;;;;5065291;28;19975;-66
2022/01/08 06:04:31;;;;;;;;;;;1.30;99.90;;;;;;5064931;28;19909;-66
2022/01/08 06:06:57;;;;;;;;;;;1.30;99.90;;;;;;5065164;28;20122;-67
2022/01/08 06:09:22;;;;;;;;;;;1.30;99.90;;;;;;5065144;28;20019;-66
2022/01/08 06:11:48;;;;;;;;;;;1.40;99.90;;;;;;5064960;28;20219;-66
2022/01/08 06:14:14;;;;;;;;;;;1.40;99.90;;;;;;5063929;28;19919;-68
2022/01/08 06:16:39;;;;;;;;;;;1.40;99.90;;;;;;5064857;28;19916;-68
2022/01/08 06:19:10;;;;;;;;;;;1.40;99.90;;;;;;5064870;28;20003;-68
2022/01/08 06:21:36;;;;;;;;;;;1.40;99.90;;;;;;5063949;28;20242;-70
2022/01/08 06:24:02;;;;;;;;;;;1.30;99.90;;;;;;5064823;28;20157;-67
2022/01/08 06:26:28;;;;;;;;;;;1.20;99.90;;;;;;5064519;28;20089;-67
2022/01/08 06:28:54;;;;;;;;;;;1.20;99.90;;;;;;5064482;28;19935;-68
2022/01/08 06:31:20;;;;;;;;;;;1.20;99.90;;;;;;5082850;23;20230;-64
2022/01/08 06:33:46;;;;;;;;;;;1.30;99.90;;;;;;5063441;28;19968;-64
2022/01/08 06:36:13;;;;;;;;;;;1.30;99.90;;;;;;5063735;28;19915;-64
2022/01/08 06:38:38;;;;;;;;;;;1.30;99.90;;;;;;5064687;28;20246;-64
2022/01/08 06:41:04;;;;;;;;;;;1.20;99.90;;;;;;5064570;28;19940;-64
2022/01/08 06:43:30;;;;;;;;;;;1.20;99.90;;;;;;5064694;28;20089;-64
2022/01/08 06:45:55;;;;;;;;;;;1.30;99.90;;;;;;5064091;28;19909;-63
2022/01/08 06:48:21;;;;;;;;;;;1.20;99.90;;;;;;5064395;28;19908;-63
2022/01/08 06:50:47;;;;;;;;;;;1.20;99.90;;;;;;5064127;28;20230;-64
2022/01/08 06:53:13;;;;;;;;;;;1.20;99.90;;;;;;5064450;28;19944;-64
2022/01/08 06:55:38;;;;;;;;;;;1.30;99.90;;;;;;5064816;28;19909;-63
2022/01/08 06:58:04;;;;;;;;;;;1.30;99.90;;;;;;5061997;28;19975;-64
2022/01/08 07:00:30;;;;;;;;;;;1.30;99.90;;;;;;5063455;28;19932;-63
2022/01/08 07:02:55;;;;;;;;;;;1.30;99.90;;;;;;5064274;28;19979;-63
2022/01/08 07:05:21;;;;;;;;;;;1.40;99.90;;;;;;5063721;28;20235;-64
2022/01/08 07:07:47;;;;;;;;;;;1.40;99.90;;;;;;5065056;28;19908;-64
2022/01/08 07:10:13;;;;;;;;;;;1.50;99.90;;;;;;5065256;28;19919;-64
2022/01/08 07:12:39;;;;;;;;;;;1.60;99.90;;;;;;5064507;28;19916;-64
2022/01/08 07:15:05;;;;;;;;;;;1.50;99.90;;;;;;5063626;28;19912;-64
2022/01/08 07:17:31;;;;;;;;;;;1.50;99.90;;;;;;5063014;28;20222;-64
2022/01/08 07:19:56;;;;;;;;;;;1.40;99.90;;;;;;5063062;28;19976;-64
2022/01/08 07:22:22;;;;;;;;;;;1.40;99.90;;;;;;5063565;28;19947;-63
2022/01/08 07:24:48;;;;;;;;;;;1.50;99.90;;;;;;5063631;28;20227;-63
2022/01/08 07:27:14;;;;;;;;;;;1.60;99.90;;;;;;5063922;28;19909;-65
2022/01/08 07:29:39;;;;;;;;;;;1.50;99.90;;;;;;5063559;28;19980;-64
2022/01/08 07:32:05;;;;;;;;;;;1.50;99.90;;;;;;5063828;28;20002;-64
2022/01/08 07:34:31;;;;;;;;;;;1.50;99.90;;;;;;5062225;28;20116;-63
2022/01/08 07:36:57;;;;;;;;;;;1.60;99.90;;;;;;5063377;28;19917;-64
2022/01/08 07:39:22;;;;;;;;;;;1.60;99.90;;;;;;5063181;28;19909;-63
2022/01/08 07:41:48;;;;;;;;;;;1.60;99.90;;;;;;5063761;28;19925;-64
2022/01/08 07:44:14;;;;;;;;;;;1.50;99.90;;;;;;5062866;28;19908;-64
2022/01/08 07:46:39;;;;;;;;;;;1.60;99.90;;;;;;5062448;28;19909;-64
2022/01/08 07:49:05;;;;;;;;;;;1.50;99.90;;;;;;5063097;28;19915;-64
2022/01/08 07:51:31;;;;;;;;;;;1.50;99.90;;;;;;5062966;28;20107;-62
2022/01/08 07:53:56;;;;;;;;;;;1.50;99.90;;;;;;5062192;28;19913;-64
2022/01/08 07:56:22;;;;;;;;;;;1.50;99.90;;;;;;5062719;28;19976;-64
2022/01/08 07:58:48;;;;;;;;;;;1.40;99.90;;;;;;5063223;28;19962;-65
2022/01/08 08:01:13;;;;;;;;;;;1.40;99.90;;;;;;5062788;28;19909;-64
2022/01/08 08:03:39;;;;;;;;;;;1.50;99.90;;;;;;5062909;28;19916;-63
2022/01/08 08:06:09;;;;;;;;;;;1.50;99.90;;;;;;5062275;28;20275;-64
2022/01/08 08:08:35;;;;;;;;;;;1.50;99.90;;;;;;5062948;28;19917;-64
2022/01/08 08:11:00;;;;;;;;;;;1.50;99.90;;;;;;5062478;28;20165;-64
2022/01/08 08:13:26;;;;;;;;;;;1.50;99.90;;;;;;5062999;28;19916;-64
2022/01/08 08:15:52;;;;;;;;;;;1.50;99.90;;;;;;5062265;28;19909;-64
2022/01/08 08:18:17;;;;;;;;;;;1.40;99.90;;;;;;5062864;28;20103;-64
2022/01/08 08:20:43;;;;;;;;;;;1.40;99.90;;;;;;5062837;28;19972;-64
2022/01/08 08:23:09;;;;;;;;;;;1.40;99.90;;;;;;5062913;28;19909;-64
2022/01/08 08:25:35;;;;;;;;;;;1.40;99.90;;;;;;5061967;28;19909;-65
2022/01/08 08:28:00;;;;;;;;;;;1.40;99.90;;;;;;5062195;28;19908;-63
2022/01/08 08:30:26;;;;;;;;;;;1.50;99.90;;;;;;5060926;28;19932;-64
2022/01/08 08:32:52;;;;;;;;;;;1.50;99.90;;;;;;5061697;28;19947;-64
2022/01/08 08:35:18;;;;;;;;;;;1.50;99.90;;;;;;5062484;28;20093;-64
2022/01/08 08:37:43;;;;;;;;;;;1.60;99.90;;;;;;5062817;28;19909;-64
2022/01/08 08:40:10;;;;;;;;;;;1.60;99.90;;;;;;5064034;28;19916;-64
2022/01/08 08:42:36;;;;;;;;;;;1.70;99.90;;;;;;5065673;28;19915;-63
2022/01/08 08:45:03;;;;;;;;;;;1.80;99.80;;;;;;5064903;28;19909;-65
2022/01/08 08:47:28;;;;;;;;;;;1.80;99.60;;;;;;5061868;28;19909;-64
2022/01/08 08:49:54;;;;;;;;;;;1.90;99.10;;;;;;5066413;28;20222;-64
2022/01/08 08:52:21;;;;;;;;;;;1.90;99.20;;;;;;5066627;28;19909;-65
2022/01/08 08:54:47;;;;;;;;;;;2.00;98.80;;;;;;5066320;28;19917;-66
2022/01/08 08:57:12;;;;;;;;;;;2.10;98.90;;;;;;5066471;28;19908;-67
2022/01/08 08:59:38;;;;;;;;;;;2.10;99.00;;;;;;5065328;28;20231;-66
2022/01/08 09:02:04;;;;;;;;;;;2.30;99.50;;;;;;5066054;28;19939;-70
2022/01/08 09:04:29;;;;;;;;;;;2.30;99.10;;;;;;5066228;28;19909;-66
2022/01/08 09:06:57;;;;;;;;;;;2.40;98.80;;;;;;5066397;28;19932;-68
2022/01/08 09:09:24;;;;;;;;;;;2.40;98.30;;;;;;5066299;28;19980;-66
2022/01/08 09:11:49;;;;;;;;;;;2.40;98.00;;;;;;5065084;28;19912;-68
2022/01/08 09:14:15;;;;;;;;;;;2.30;97.80;;;;;;5066005;28;19966;-67
2022/01/08 09:16:49;;;;;;;;;;;2.20;98.10;;;;;;5065427;28;19909;-68
2022/01/08 09:19:15;;;;;;;;;;;2.20;98.10;;;;;;5066382;28;20208;-67
2022/01/08 09:21:41;;;;;;;;;;;2.20;98.30;;;;;;5065398;28;19915;-67
2022/01/08 09:24:06;;;;;;;;;;;2.20;98.00;;;;;;5065877;28;19908;-66
2022/01/08 09:26:32;;;;;;;;;;;2.10;98.10;;;;;;5065676;28;19933;-66
2022/01/08 09:28:58;;;;;;;;;;;2.10;98.30;;;;;;5065825;28;19909;-69
2022/01/08 09:31:23;;;;;;;;;;;2.10;98.30;;;;;;5064321;28;19924;-67
2022/01/08 09:33:49;;;;;;;;;;;2.00;98.30;;;;;;5065989;28;19909;-68
2022/01/08 09:36:15;;;;;;;;;;;2.00;98.40;;;;;;5065443;28;19909;-68
2022/01/08 09:38:40;;;;;;;;;;;2.10;98.40;;;;;;5065822;28;19976;-68
2022/01/08 09:41:06;;;;;;;;;;;2.10;98.60;;;;;;5064925;28;20183;-67
2022/01/08 09:43:32;;;;;;;;;;;2.20;98.60;;;;;;5065874;28;19916;-68
2022/01/08 09:45:58;;;;;;;;;;;2.10;98.30;;;;;;5065543;28;19909;-68
2022/01/08 09:48:24;;;;;;;;;;;2.10;98.40;;;;;;5066000;28;19947;-67
2022/01/08 09:50:50;;;;;;;;;;;2.10;98.30;;;;;;5065140;28;19912;-68
2022/01/08 09:53:15;;;;;;;;;;;2.10;98.10;;;;;;5064770;28;19952;-67
2022/01/08 09:55:41;;;;;;;;;;;2.10;98.00;;;;;;5065549;28;19909;-67
2022/01/08 09:58:07;;;;;;;;;;;2.00;97.50;;;;;;5065728;28;19980;-67
2022/01/08 10:00:33;;;;;;;;;;;2.10;97.80;;;;;;5065639;28;20115;-67
2022/01/08 10:03:15;;;;;;;;;;;2.10;98.00;;;;;;5064029;28;19912;-67
2022/01/08 10:05:46;;;;;;;;;;;2.00;97.90;;;;;;5065117;28;19921;-67
2022/01/08 10:08:12;;;;;;;;;;;1.90;98.00;;;;;;5064140;28;19963;-67
2022/01/08 10:10:37;;;;;;;;;;;1.90;98.10;;;;;;5063958;28;20213;-67
2022/01/08 10:13:03;;;;;;;;;;;1.90;98.30;;;;;;5047265;28;19909;-67
2022/01/08 10:18:29;;;;;;;;;;;1.80;98.20;;;;;;5065097;28;19915;-67
2022/01/08 10:20:55;;;;;;;;;;;1.80;98.20;;;;;;5063225;28;19979;-66
2022/01/08 10:23:28;;;;;;;;;;;1.80;98.20;;;;;;5063771;28;19955;-66
2022/01/08 10:26:13;;;;;;;;;;;1.80;98.00;;;;;;5064602;28;19916;-67
2022/01/08 10:28:49;;;;;;;;;;;1.70;97.80;;;;;;5064926;28;19909;-66
2022/01/08 10:31:23;;;;;;;;;;;1.70;98.00;;;;;;5064156;28;20231;-66
2022/01/08 10:33:53;;;;;;;;;;;1.80;98.20;;;;;;5047191;28;19909;-67
2022/01/08 10:36:25;;;;;;;;;;;1.80;98.30;;;;;;5064342;28;20154;-67
2022/01/08 10:38:53;;;;;;;;;;;1.80;98.40;;;;;;5047341;28;19944;-67
2022/01/08 10:41:19;;;;;;;;;;;1.80;98.60;;;;;;5056573;28;19909;-71
2022/01/08 10:43:45;;;;;;;;;;;1.90;98.80;;;;;;5063104;28;20088;-70
2022/01/08 10:46:13;;;;;;;;;;;1.80;98.80;;;;;;5063819;28;19936;-70
2022/01/08 10:48:42;;;;;;;;;;;1.80;98.40;;;;;;5063417;28;19913;-70
2022/01/08 10:51:38;;;;;;;;;;;1.90;98.60;;;;;;5063855;28;19917;-70
2022/01/08 10:54:11;;;;;;;;;;;1.80;98.50;;;;;;5061475;28;20148;-70
2022/01/08 10:56:46;;;;;;;;;;;1.80;98.40;;;;;;5063989;28;19909;-70
2022/01/08 10:59:13;;;;;;;;;;;2.00;98.20;;;;;;5063176;28;19947;-70
2022/01/08 11:01:45;;;;;;;;;;;2.00;98.10;;;;;;5061546;28;20112;-70
2022/01/08 11:04:13;;;;;;;;;;;2.00;97.50;;;;;;5062782;28;19913;-70
2022/01/08 11:06:53;;;;;;;;;;;2.00;97.70;;;;;;5063998;28;19948;-71
2022/01/08 11:09:18;;;;;;;;;;;2.00;97.40;;;;;;5063113;28;19916;-70
2022/01/08 11:11:44;;;;;;;;;;;2.10;97.40;;;;;;5056847;28;19919;-66
2022/01/08 11:14:21;;;;;;;;;;;2.20;97.30;;;;;;5053386;28;19920;-68
2022/01/08 11:16:50;;;;;;;;;;;2.30;96.80;;;;;;5058172;28;20196;-70
2022/01/08 11:19:16;;;;;;;;;;;2.40;95.80;;;;;;5058144;28;20139;-73
2022/01/08 11:21:41;;;;;;;;;;;2.40;96.10;;;;;;5042775;28;19909;-72
2022/01/08 11:24:07;;;;;;;;;;;2.50;96.00;;;;;;5060091;28;20089;-73
2022/01/08 11:26:33;;;;;;;;;;;2.40;95.60;;;;;;5061996;28;20031;-74
2022/01/08 11:28:59;;;;;;;;;;;2.40;95.80;;;;;;5045524;28;19924;-72
2022/01/08 11:31:29;;;;;;;;;;;2.40;95.70;;;;;;5045373;28;19916;-71
2022/01/08 11:33:58;;;;;;;;;;;2.40;95.60;;;;;;5045708;28;20268;-69
2022/01/08 11:36:24;;;;;;;;;;;2.40;95.40;;;;;;5045868;28;19947;-69
2022/01/08 11:38:50;;;;;;;;;;;2.50;95.50;;;;;;5062169;28;19908;-73
2022/01/08 11:41:16;;;;;;;;;;;2.50;95.40;;;;;;5055586;28;20015;-67
2022/01/08 11:43:41;;;;;;;;;;;2.50;95.30;;;;;;5052859;28;20103;-69
2022/01/08 11:46:07;;;;;;;;;;;2.50;95.20;;;;;;5044779;28;19915;-70
2022/01/08 11:48:40;;;;;;;;;;;2.50;94.80;;;;;;5062129;28;20160;-71
2022/01/08 11:51:06;;;;;;;;;;;2.40;94.70;;;;;;5062907;28;19913;-70
2022/01/08 11:53:52;;;;;;;;;;;2.30;94.60;;;;;;5044999;28;19909;-67
2022/01/08 11:56:24;;;;;;;;;;;2.30;94.30;;;;;;5061879;28;20151;-68
2022/01/08 11:59:12;;;;;;;;;;;2.30;94.90;;;;;;5062509;28;19947;-69
2022/01/08 12:01:43;;;;;;;;;;;2.30;95.10;;;;;;5062523;28;20217;-69
2022/01/08 12:04:28;;;;;;;;;;;2.40;94.90;;;;;;5061114;28;19916;-70
2022/01/08 12:06:54;;;;;;;;;;;2.40;95.10;;;;;;5044400;28;19908;-73
2022/01/08 12:09:21;;;;;;;;;;;2.40;94.60;;;;;;5028436;28;19916;-68
2022/01/08 12:11:47;;;;;;;;;;;2.50;94.80;;;;;;5056607;28;19920;-70
2022/01/08 12:14:14;;;;;;;;;;;2.50;94.40;;;;;;5052422;28;19908;-68
2022/01/08 12:16:41;;;;;;;;;;;2.50;94.70;;;;;;5061107;28;19909;-68
2022/01/08 12:19:08;;;;;;;;;;;2.60;94.50;;;;;;5062712;28;19936;-68
2022/01/08 12:21:38;;;;;;;;;;;2.60;94.60;;;;;;5062125;28;19947;-66
2022/01/08 12:24:26;;;;;;;;;;;2.70;94.00;;;;;;5061116;28;19916;-68
2022/01/08 12:26:52;;;;;;;;;;;2.70;93.60;;;;;;5062058;28;19946;-68
2022/01/08 12:29:38;;;;;;;;;;;2.80;93.60;;;;;;5060643;28;19909;-68
2022/01/08 12:32:36;;;;;;;;;;;2.80;94.10;;;;;;5061830;28;19920;-68
2022/01/08 12:35:18;;;;;;;;;;;2.90;94.60;;;;;;5060782;28;20196;-68
2022/01/08 12:37:45;;;;;;;;;;;3.00;94.40;;;;;;5061967;28;19947;-68
2022/01/08 12:40:13;;;;;;;;;;;3.40;93.80;;;;;;5061778;28;19955;-68
2022/01/08 12:42:40;;;;;;;;;;;3.80;91.70;;;;;;5053564;28;19909;-68
2022/01/08 12:45:13;;;;;;;;;;;3.90;92.20;;;;;;5050616;28;19917;-69
2022/01/08 12:47:45;;;;;;;;;;;4.10;92.40;;;;;;5053759;28;19917;-68
2022/01/08 12:50:24;;;;;;;;;;;4.40;91.90;;;;;;5050292;28;20235;-69
2022/01/08 12:53:07;;;;;;;;;;;5.30;90.10;;;;;;5056228;28;19909;-68
2022/01/08 12:55:48;;;;;;;;;;;5.80;87.00;;;;;;5061339;28;20010;-68
2022/01/08 12:58:18;;;;;;;;;;;6.10;83.50;;;;;;5061710;28;20131;-67
2022/01/08 13:01:04;;;;;;;;;;;6.10;80.80;;;;;;5061736;28;19959;-67
2022/01/08 13:03:34;;;;;;;;;;;5.80;82.30;;;;;;5061876;28;19923;-68
2022/01/08 13:06:01;;;;;;;;;;;5.60;82.20;;;;;;5061411;28;20267;-68
2022/01/08 13:08:32;;;;;;;;;;;5.20;83.70;;;;;;5061840;28;20215;-68
2022/01/08 13:11:00;;;;;;;;;;;4.90;83.40;;;;;;5061363;28;20112;-70
2022/01/08 13:13:45;;;;;;;;;;;4.50;83.60;;;;;;5053535;28;20254;-67
2022/01/08 13:16:17;;;;;;;;;;;4.30;84.40;;;;;;5055058;28;19920;-67
2022/01/08 13:18:56;;;;;;;;;;;4.10;86.00;;;;;;5061624;28;19908;-67
2022/01/08 13:21:33;;;;;;;;;;;3.90;88.20;;;;;;5060532;28;19909;-67
2022/01/08 13:24:01;;;;;;;;;;;4.00;89.20;;;;;;5061797;28;20163;-67
2022/01/08 13:26:32;;;;;;;;;;;4.00;88.40;;;;;;5064220;28;19947;-67
2022/01/08 13:28:58;;;;;;;;;;;3.80;88.70;;;;;;5065527;28;19909;-67
2022/01/08 13:31:45;;;;;;;;;;;3.60;89.30;;;;;;5064977;28;20231;-67
2022/01/08 13:34:10;;;;;;;;;;;3.50;90.10;;;;;;5065210;28;20137;-67
2022/01/08 13:36:58;;;;;;;;;;;3.30;91.10;;;;;;5065231;28;19915;-67
2022/01/08 13:39:26;;;;;;;;;;;3.20;91.30;;;;;;5061825;28;19909;-67
2022/01/08 13:41:51;;;;;;;;;;;3.00;91.50;;;;;;5064561;28;19908;-67
2022/01/08 13:44:18;;;;;;;;;;;3.10;91.80;;;;;;5036111;28;19963;-67
2022/01/08 13:46:45;;;;;;;;;;;3.10;91.60;;;;;;5059429;28;19908;-67
2022/01/08 13:49:11;;;;;;;;;;;3.00;92.10;;;;;;5064450;28;20223;-67
2022/01/08 13:51:37;;;;;;;;;;;3.00;91.80;;;;;;5063987;28;19920;-67
2022/01/08 13:54:05;;;;;;;;;;;2.90;92.00;;;;;;5062725;28;19909;-68
2022/01/08 13:56:32;;;;;;;;;;;3.00;92.20;;;;;;5054856;28;20314;-68
2022/01/08 13:59:04;;;;;;;;;;;2.90;92.50;;;;;;5043753;28;19954;-68
2022/01/08 14:01:43;;;;;;;;;;;3.00;92.50;;;;;;5048727;28;19919;-68
2022/01/08 14:04:09;;;;;;;;;;;3.00;92.60;;;;;;5064027;28;20250;-68
2022/01/08 14:06:35;;;;;;;;;;;3.00;92.60;;;;;;5063632;28;19909;-69
2022/01/08 14:09:01;;;;;;;;;;;3.10;92.40;;;;;;5063498;28;20208;-67
2022/01/08 14:11:27;;;;;;;;;;;3.20;92.20;;;;;;5064159;28;19925;-68
2022/01/08 14:13:55;;;;;;;;;;;3.30;92.20;;;;;;5062429;28;19955;-68
2022/01/08 14:16:29;;;;;;;;;;;3.30;92.20;;;;;;5053200;28;19917;-69
2022/01/08 14:19:09;;;;;;;;;;;3.20;92.00;;;;;;5061386;28;19917;-69
2022/01/08 14:21:34;;;;;;;;;;;3.40;92.20;;;;;;5063845;28;19913;-68
2022/01/08 14:24:14;;;;;;;;;;;3.50;91.60;;;;;;5063325;28;19927;-68
2022/01/08 14:26:40;;;;;;;;;;;3.40;91.70;;;;;;5064030;28;19968;-68
2022/01/08 14:29:09;;;;;;;;;;;3.20;92.00;;;;;;5063823;28;20392;-65
2022/01/08 14:31:35;;;;;;;;;;;3.10;92.20;;;;;;5062828;28;19917;-65
2022/01/08 14:34:10;;;;;;;;;;;3.10;92.20;;;;;;5064291;28;19917;-65
2022/01/08 14:36:53;;;;;;;;;;;3.10;92.10;;;;;;5064154;28;19917;-74
2022/01/08 14:39:37;;;;;;;;;;;3.00;92.10;;;;;;5046570;28;19916;-72
2022/01/08 14:42:13;;;;;;;;;;;3.00;92.50;;;;;;5063851;28;19940;-72
2022/01/08 14:45:01;;;;;;;;;;;3.00;92.50;;;;;;5062868;28;19922;-71
2022/01/08 14:47:34;;;;;;;;;;;3.00;92.50;;;;;;5050464;28;19928;-71
2022/01/08 14:49:59;;;;;;;;;;;3.10;92.00;;;;;;5054543;28;19916;-71
2022/01/08 14:52:25;;;;;;;;;;;3.00;91.80;;;;;;5062542;28;19995;-71
2022/01/08 14:54:51;;;;;;;;;;;3.00;92.00;;;;;;5063441;28;19970;-71